createdAt,value
2022-12-14T00:00:09.460Z,31.40
2022-12-14T00:03:12.253Z,32.50
2022-12-14T00:06:17.932Z,28.87
2022-12-14T00:09:22.036Z,29.23
2022-12-14T00:12:24.641Z,29.37
2022-12-14T00:15:27.622Z,31.43
2022-12-14T00:18:30.307Z,29.80
2022-12-14T00:21:32.952Z,27.27
2022-12-14T00:24:36.894Z,31.73
2022-12-14T00:27:44.510Z,27.57
2022-12-14T00:30:47.134Z,29.10
2022-12-14T00:33:50.553Z,30.57
2022-12-14T00:36:53.172Z,37.13
2022-12-14T00:39:57.099Z,29.07
2022-12-14T00:42:59.685Z,31.40
2022-12-14T00:46:02.392Z,30.43
2022-12-14T00:49:05.101Z,31.63
2022-12-14T00:52:07.684Z,30.40
2022-12-14T00:55:11.862Z,31.57
2022-12-14T00:58:16.462Z,30.57
2022-12-14T01:01:19.282Z,32.73
2022-12-14T01:04:24.460Z,31.83
2022-12-14T01:07:27.083Z,28.33
2022-12-14T01:10:31.054Z,30.37
2022-12-14T01:13:33.928Z,29.03
2022-12-14T01:16:36.540Z,32.20
2022-12-14T01:19:39.177Z,29.23
2022-12-14T01:22:41.756Z,28.63
2022-12-14T01:25:45.726Z,32.13
2022-12-14T01:28:53.375Z,29.83
2022-12-14T01:31:55.956Z,32.33
2022-12-14T01:34:58.558Z,30.37
2022-12-14T01:38:01.136Z,39.53
2022-12-14T01:41:06.202Z,29.17
2022-12-14T01:44:46.012Z,29.97
2022-12-14T01:47:52.767Z,29.77
2022-12-14T01:50:55.409Z,35.47
2022-12-14T01:53:59.401Z,30.33
2022-12-14T01:57:03.548Z,33.93
2022-12-14T02:00:10.270Z,31.50
2022-12-14T02:03:17.193Z,29.80
2022-12-14T02:06:26.440Z,31.40
2022-12-14T02:09:33.021Z,32.77
2022-12-14T02:12:42.685Z,29.03
2022-12-14T02:15:45.883Z,30.53
2022-12-14T02:18:48.488Z,32.43
2022-12-14T02:22:10.774Z,32.73
2022-12-14T02:25:49.479Z,31.20
2022-12-14T02:29:32.538Z,30.37
2022-12-14T02:32:47.219Z,31.53
2022-12-14T02:35:55.354Z,34.00
2022-12-14T02:39:08.491Z,29.30
2022-12-14T02:42:14.782Z,31.23
2022-12-14T02:45:26.794Z,33.87
2022-12-14T02:48:36.866Z,32.83
2022-12-14T02:51:52.109Z,26.37
2022-12-14T02:55:01.898Z,29.70
2022-12-14T02:58:09.910Z,28.17
2022-12-14T03:01:17.940Z,29.93
2022-12-14T03:04:20.698Z,30.23
2022-12-14T03:07:32.410Z,28.47
2022-12-14T03:10:40.504Z,27.53
2022-12-14T03:13:51.066Z,26.00
2022-12-14T03:17:00.404Z,29.93
2022-12-14T03:20:09.763Z,31.57
2022-12-14T03:23:15.867Z,30.67
2022-12-14T03:26:25.943Z,27.97
2022-12-14T03:29:32.233Z,32.50
2022-12-14T03:32:41.960Z,30.27
2022-12-14T03:35:50.608Z,28.37
2022-12-14T03:38:58.054Z,29.70
2022-12-14T03:42:11.098Z,28.63
2022-12-14T03:45:19.201Z,29.37
2022-12-14T03:48:32.530Z,31.20
2022-12-14T03:51:40.859Z,33.43
2022-12-14T03:54:50.629Z,26.30
2022-12-14T03:58:20.414Z,30.90
2022-12-14T04:01:36.042Z,28.17
2022-12-14T04:04:47.624Z,27.87
2022-12-14T04:08:01.036Z,27.37
2022-12-14T04:11:23.585Z,32.90
2022-12-14T04:14:49.839Z,31.27
2022-12-14T04:18:14.185Z,29.47
2022-12-14T04:21:25.147Z,26.47
2022-12-14T04:24:50.921Z,29.07
2022-12-14T04:27:59.610Z,27.40
2022-12-14T04:31:06.213Z,30.53
2022-12-14T04:34:12.904Z,28.33
2022-12-14T04:37:20.550Z,26.87
2022-12-14T04:40:27.034Z,25.10
2022-12-14T04:43:34.748Z,32.43
2022-12-14T04:46:40.921Z,31.93
2022-12-14T04:49:49.227Z,30.87
2022-12-14T04:53:00.029Z,28.40
2022-12-14T04:56:11.725Z,31.73
2022-12-14T04:59:14.588Z,33.23
2022-12-14T05:02:24.500Z,30.60
2022-12-14T05:05:35.433Z,30.17
2022-12-14T05:08:57.672Z,31.97
2022-12-14T05:12:05.945Z,30.80
2022-12-14T05:15:14.179Z,31.87
2022-12-14T05:18:17.353Z,29.53
2022-12-14T05:21:33.847Z,32.57
2022-12-14T05:24:37.917Z,30.50
2022-12-14T05:27:40.513Z,28.93
2022-12-14T05:30:43.264Z,29.87
2022-12-14T05:33:51.539Z,33.40
2022-12-14T05:36:54.455Z,35.80
2022-12-14T05:39:58.565Z,31.13
2022-12-14T05:43:08.194Z,30.77
2022-12-14T05:46:12.251Z,34.07
2022-12-14T05:49:14.894Z,27.80
2022-12-14T05:52:17.971Z,32.00
2022-12-14T05:55:22.276Z,30.97
2022-12-14T05:58:24.889Z,29.53
2022-12-14T06:01:27.569Z,30.97
2022-12-14T06:04:30.385Z,27.80
2022-12-14T06:07:32.997Z,34.83
2022-12-14T06:10:36.953Z,30.87
2022-12-14T06:13:41.143Z,28.53
2022-12-14T06:16:45.428Z,34.20
2022-12-14T06:19:50.164Z,32.73
2022-12-14T06:22:55.289Z,29.17
2022-12-14T06:25:59.254Z,29.97
2022-12-14T06:29:01.836Z,34.03
2022-12-14T06:32:04.601Z,33.17
2022-12-14T06:35:08.681Z,28.23
2022-12-14T06:38:11.484Z,41.03
2022-12-14T06:41:15.638Z,33.10
2022-12-14T06:44:18.417Z,34.80
2022-12-14T06:47:21.002Z,32.27
2022-12-14T06:50:23.573Z,38.03
2022-12-14T06:53:26.462Z,48.07
2022-12-14T06:56:30.968Z,46.67
2022-12-14T06:59:33.569Z,61.47
2022-12-14T07:02:36.356Z,33.07
2022-12-14T07:05:41.959Z,32.03
2022-12-14T07:08:47.379Z,33.20
2022-12-14T07:11:52.220Z,36.93
2022-12-14T07:14:55.087Z,34.50
2022-12-14T07:17:57.676Z,51.13
2022-12-14T07:21:02.311Z,40.73
2022-12-14T07:24:05.359Z,38.27
2022-12-14T07:27:09.309Z,35.50
2022-12-14T07:30:12.636Z,33.97
2022-12-14T07:33:15.238Z,30.00
2022-12-14T07:36:19.135Z,34.10
2022-12-14T07:39:22.789Z,39.20
2022-12-14T07:42:26.883Z,45.23
2022-12-14T07:45:29.523Z,65.63
2022-12-14T07:48:32.575Z,37.10
2022-12-14T07:51:37.653Z,61.20
2022-12-14T07:54:40.232Z,87.87
2022-12-14T07:57:44.368Z,108.23
2022-12-14T08:00:48.217Z,116.67
2022-12-14T08:03:52.781Z,114.23
2022-12-14T08:06:55.360Z,99.23
2022-12-14T08:09:58.009Z,76.53
2022-12-14T08:13:01.955Z,59.00
2022-12-14T08:16:05.700Z,43.10
2022-12-14T08:19:08.311Z,38.87
2022-12-14T08:22:11.440Z,34.60
2022-12-14T08:25:14.035Z,30.03
2022-12-14T08:28:18.008Z,28.40
2022-12-14T08:31:22.796Z,30.57
2022-12-14T08:34:25.393Z,32.57
2022-12-14T08:37:27.980Z,29.73
2022-12-14T08:40:32.278Z,30.97
2022-12-14T08:43:37.365Z,42.20
2022-12-14T08:46:40.197Z,46.00
2022-12-14T08:49:42.809Z,30.83
2022-12-14T08:52:48.217Z,29.63
2022-12-14T08:55:50.810Z,33.03
2022-12-14T08:58:54.794Z,32.67
2022-12-14T09:01:57.600Z,32.43
2022-12-14T09:05:00.294Z,84.50
2022-12-14T09:08:02.880Z,59.70
2022-12-14T09:11:07.076Z,36.27
2022-12-14T09:14:11.053Z,29.70
2022-12-14T09:17:14.168Z,29.30
2022-12-14T09:20:17.075Z,37.77
2022-12-14T09:23:19.656Z,32.80
2022-12-14T09:26:24.510Z,37.30
2022-12-14T09:29:28.862Z,30.37
2022-12-14T09:32:31.595Z,37.30
2022-12-14T09:35:34.174Z,29.37
2022-12-14T09:38:39.197Z,26.00
2022-12-14T09:41:57.696Z,22.10
2022-12-14T09:45:12.508Z,30.73
2022-12-14T09:48:19.536Z,24.37
2022-12-14T09:51:23.853Z,25.23
2022-12-14T09:54:29.363Z,27.57
2022-12-14T09:57:39.010Z,24.93
2022-12-14T10:00:53.161Z,22.33
2022-12-14T10:04:06.008Z,24.70
2022-12-14T10:07:17.715Z,27.97
2022-12-14T10:10:26.580Z,24.93
2022-12-14T10:13:38.438Z,24.30
2022-12-14T10:16:52.628Z,25.50
2022-12-14T10:19:57.420Z,25.47
2022-12-14T10:23:02.348Z,24.50
2022-12-14T10:26:08.992Z,26.57
2022-12-14T10:29:17.994Z,29.70
2022-12-14T10:32:28.312Z,31.53
2022-12-14T10:35:36.857Z,25.33
2022-12-14T10:38:46.021Z,22.10
2022-12-14T10:41:59.701Z,27.37
2022-12-14T10:45:39.875Z,23.53
2022-12-14T10:48:45.107Z,23.13
2022-12-14T10:51:51.995Z,23.93
2022-12-14T10:54:59.618Z,23.37
2022-12-14T10:58:02.200Z,20.23
2022-12-14T11:01:04.992Z,25.40
2022-12-14T11:04:19.259Z,21.67
2022-12-14T11:07:25.651Z,22.27
2022-12-14T11:10:29.391Z,23.30
2022-12-14T11:13:32.031Z,25.47
2022-12-14T11:16:37.463Z,21.50
2022-12-14T11:19:41.663Z,22.13
2022-12-14T11:22:45.424Z,22.40
2022-12-14T11:25:51.395Z,21.73
2022-12-14T11:28:55.804Z,24.10
2022-12-14T11:32:00.224Z,24.67
2022-12-14T11:35:04.359Z,21.57
2022-12-14T11:38:07.283Z,23.10
2022-12-14T11:41:21.486Z,22.97
2022-12-14T11:44:26.248Z,24.57
2022-12-14T11:47:29.121Z,25.30
2022-12-14T11:50:33.099Z,25.77
2022-12-14T11:53:35.696Z,23.00
2022-12-14T11:56:38.351Z,22.10
2022-12-14T11:59:48.550Z,21.23
2022-12-14T12:03:00.720Z,22.00
2022-12-14T12:06:07.895Z,23.57
2022-12-14T12:09:23.424Z,22.50
2022-12-14T12:12:26.055Z,23.90
2022-12-14T12:15:36.828Z,26.47
2022-12-14T12:18:46.615Z,25.53
2022-12-14T12:21:52.173Z,21.67
2022-12-14T12:25:33.667Z,22.13
2022-12-14T12:28:26.930Z,27.40
2022-12-14T12:31:35.506Z,25.07
2022-12-14T12:34:44.978Z,24.27
2022-12-14T12:37:52.653Z,21.57
2022-12-14T12:41:04.192Z,19.70
2022-12-14T12:44:23.980Z,22.90
2022-12-14T12:47:43.179Z,20.57
2022-12-14T12:50:52.519Z,24.70
2022-12-14T12:54:00.303Z,22.30
2022-12-14T12:57:05.933Z,23.10
2022-12-14T13:00:15.512Z,22.37
2022-12-14T13:03:23.647Z,21.77
2022-12-14T13:06:31.618Z,22.37
2022-12-14T13:09:42.374Z,23.90
2022-12-14T13:12:48.964Z,18.87
2022-12-14T13:15:55.136Z,21.07
2022-12-14T13:19:32.093Z,22.17
2022-12-14T13:22:29.469Z,20.50
2022-12-14T13:25:48.968Z,22.03
2022-12-14T13:29:02.661Z,24.80
2022-12-14T13:32:14.523Z,23.30
2022-12-14T13:35:34.898Z,21.60
2022-12-14T13:39:02.378Z,24.70
2022-12-14T13:42:09.196Z,23.40
2022-12-14T13:45:18.974Z,26.30
2022-12-14T13:48:24.945Z,26.27
2022-12-14T13:51:30.502Z,23.27
2022-12-14T13:54:36.039Z,23.27
2022-12-14T13:57:39.977Z,26.33
2022-12-14T14:00:57.868Z,26.67
2022-12-14T14:04:22.188Z,28.47
2022-12-14T14:07:50.432Z,27.80
2022-12-14T14:11:02.459Z,29.50
2022-12-14T14:14:47.917Z,27.57
2022-12-14T14:17:53.849Z,28.67
2022-12-14T14:21:31.343Z,24.23
2022-12-14T14:24:56.754Z,23.00
2022-12-14T14:28:01.579Z,20.20
2022-12-14T14:31:05.947Z,22.33
2022-12-14T14:34:21.913Z,21.43
2022-12-14T14:37:36.184Z,25.40
2022-12-14T14:41:13.939Z,28.87
2022-12-14T14:44:05.790Z,22.47
2022-12-14T14:47:24.170Z,30.67
2022-12-14T14:50:32.654Z,30.07
2022-12-14T14:53:36.301Z,26.70
2022-12-14T14:56:39.993Z,24.33
2022-12-14T14:59:51.176Z,20.37
2022-12-14T15:02:55.826Z,25.93
2022-12-14T15:06:00.608Z,23.70
2022-12-14T15:09:08.075Z,25.40
2022-12-14T15:12:25.707Z,22.83
2022-12-14T15:15:35.740Z,20.47
2022-12-14T15:18:39.681Z,22.13
2022-12-14T15:21:42.751Z,43.93
2022-12-14T15:24:47.494Z,42.23
2022-12-14T15:27:50.897Z,24.43
2022-12-14T15:30:54.958Z,24.13
2022-12-14T15:34:00.150Z,21.10
2022-12-14T15:37:03.145Z,21.33
2022-12-14T15:40:08.401Z,23.33
2022-12-14T15:43:19.049Z,70.43
2022-12-14T15:46:26.544Z,27.83
2022-12-14T15:49:30.569Z,19.93
2022-12-14T15:52:33.987Z,25.93
2022-12-14T15:55:38.729Z,25.87
2022-12-14T15:58:42.001Z,26.47
2022-12-14T16:01:53.709Z,24.70
2022-12-14T16:05:01.580Z,36.53
2022-12-14T16:08:04.512Z,33.77
2022-12-14T16:11:13.866Z,27.63
2022-12-14T16:14:21.352Z,36.03
2022-12-14T16:17:27.359Z,23.50
2022-12-14T16:20:32.815Z,27.23
2022-12-14T16:23:41.980Z,24.10
2022-12-14T16:26:57.352Z,22.40
2022-12-14T16:30:09.144Z,31.03
2022-12-14T16:33:18.886Z,27.47
2022-12-14T16:36:26.293Z,25.52
2022-12-14T16:39:35.208Z,25.43
2022-12-14T16:42:37.813Z,27.37
2022-12-14T16:46:14.080Z,28.17
2022-12-14T16:49:22.183Z,25.03
2022-12-14T16:52:28.783Z,22.30
2022-12-14T16:55:31.428Z,26.10
2022-12-14T16:58:34.220Z,27.60
2022-12-14T17:01:42.662Z,44.73
2022-12-14T17:04:45.406Z,50.23
2022-12-14T17:07:50.083Z,41.57
2022-12-14T17:10:52.814Z,45.73
2022-12-14T17:13:55.723Z,37.27
2022-12-14T17:17:01.842Z,37.13
2022-12-14T17:20:11.965Z,33.07
2022-12-14T17:23:18.878Z,27.37
2022-12-14T17:26:23.752Z,31.13
2022-12-14T17:29:28.359Z,34.87
2022-12-14T17:32:31.519Z,42.27
2022-12-14T17:35:34.134Z,38.63
2022-12-14T17:38:38.128Z,37.60
2022-12-14T17:41:43.279Z,33.00
2022-12-14T17:44:52.076Z,29.87
2022-12-14T17:47:55.421Z,24.70
2022-12-14T17:50:58.038Z,25.40
2022-12-14T17:54:01.993Z,32.03
2022-12-14T17:57:07.319Z,26.63
2022-12-14T18:00:32.920Z,33.83
2022-12-14T18:03:37.033Z,28.13
2022-12-14T18:06:39.865Z,29.50
2022-12-14T18:09:44.109Z,28.40
2022-12-14T18:12:46.752Z,32.07
2022-12-14T18:15:51.550Z,31.20
2022-12-14T18:18:55.189Z,28.90
2022-12-14T18:21:58.003Z,33.50
2022-12-14T18:25:02.101Z,35.53
2022-12-14T18:28:06.849Z,37.63
2022-12-14T18:31:20.235Z,34.47
2022-12-14T18:34:22.846Z,34.43
2022-12-14T18:37:28.389Z,34.90
2022-12-14T18:40:36.675Z,34.23
2022-12-14T18:43:43.638Z,33.80
2022-12-14T18:46:49.309Z,35.50
2022-12-14T18:49:52.398Z,33.57
2022-12-14T18:52:56.285Z,37.07
2022-12-14T18:56:09.428Z,36.17
2022-12-14T18:59:12.023Z,35.13
2022-12-14T19:02:15.639Z,34.93
2022-12-14T19:05:25.595Z,29.97
2022-12-14T19:08:28.623Z,32.10
2022-12-14T19:11:35.074Z,31.00
2022-12-14T19:14:37.664Z,29.33
2022-12-14T19:17:40.267Z,38.97
2022-12-14T19:20:42.833Z,40.63
2022-12-14T19:23:45.741Z,36.43
2022-12-14T19:26:49.962Z,36.50
2022-12-14T19:29:52.554Z,36.00
2022-12-14T19:32:57.072Z,35.87
2022-12-14T19:36:00.161Z,40.37
2022-12-14T19:39:02.738Z,41.97
2022-12-14T19:42:06.766Z,39.57
2022-12-14T19:45:11.101Z,38.27
2022-12-14T19:48:13.850Z,37.80
2022-12-14T19:51:18.285Z,38.07
2022-12-14T19:54:20.935Z,36.20
2022-12-14T19:57:24.881Z,39.93
2022-12-14T20:00:27.492Z,37.07
2022-12-14T20:03:30.748Z,37.97
2022-12-14T20:06:34.497Z,39.93
2022-12-14T20:09:37.239Z,38.53
2022-12-14T20:12:41.172Z,39.23
2022-12-14T20:15:48.998Z,36.27
2022-12-14T20:18:51.890Z,37.17
2022-12-14T20:21:54.476Z,48.93
2022-12-14T20:24:57.065Z,43.70
2022-12-14T20:28:01.043Z,38.20
2022-12-14T20:31:06.131Z,40.93
2022-12-14T20:34:08.970Z,40.03
2022-12-14T20:37:11.623Z,38.87
2022-12-14T20:40:14.763Z,35.27
2022-12-14T20:43:18.734Z,36.37
2022-12-14T20:46:27.320Z,38.90
2022-12-14T20:49:32.749Z,37.03
2022-12-14T20:52:35.333Z,50.60
2022-12-14T20:55:38.054Z,37.63
2022-12-14T20:58:46.923Z,38.10
2022-12-14T21:01:55.489Z,37.40
2022-12-14T21:04:59.042Z,35.13
2022-12-14T21:08:01.638Z,49.27
2022-12-14T21:11:24.877Z,57.23
2022-12-14T21:14:30.561Z,34.50
2022-12-14T21:17:33.622Z,36.80
2022-12-14T21:20:37.414Z,35.40
2022-12-14T21:23:41.925Z,32.07
2022-12-14T21:26:44.776Z,39.97
2022-12-14T21:29:54.005Z,36.20
2022-12-14T21:32:56.621Z,34.97
2022-12-14T21:35:59.249Z,35.63
2022-12-14T21:39:03.292Z,38.07
2022-12-14T21:42:15.315Z,37.30
2022-12-14T21:45:19.253Z,32.30
2022-12-14T21:48:21.858Z,37.60
2022-12-14T21:51:24.428Z,34.07
2022-12-14T21:54:27.235Z,40.67
2022-12-14T21:57:50.386Z,37.20
2022-12-14T22:00:54.750Z,33.03
2022-12-14T22:03:57.402Z,33.17
2022-12-14T22:07:01.014Z,34.03
2022-12-14T22:10:03.996Z,38.60
2022-12-14T22:13:06.563Z,37.30
2022-12-14T22:16:11.458Z,41.83
2022-12-14T22:19:16.012Z,35.73
2022-12-14T22:22:18.895Z,37.00
2022-12-14T22:25:21.472Z,35.27
2022-12-14T22:28:24.577Z,38.90
2022-12-14T22:31:28.870Z,35.73
2022-12-14T22:34:31.482Z,35.03
2022-12-14T22:37:34.082Z,39.90
2022-12-14T22:40:36.807Z,36.70
2022-12-14T22:43:39.832Z,34.13
2022-12-14T22:46:44.082Z,32.37
2022-12-14T22:49:47.039Z,31.73
2022-12-14T22:52:49.919Z,33.83
2022-12-14T22:55:52.983Z,33.63
2022-12-14T22:59:04.418Z,44.03
2022-12-14T23:02:08.705Z,36.03
2022-12-14T23:05:12.969Z,33.00
2022-12-14T23:08:16.010Z,33.63
2022-12-14T23:11:36.263Z,36.80
2022-12-14T23:14:56.538Z,36.00
2022-12-14T23:18:21.074Z,33.80
2022-12-14T23:21:41.376Z,33.53
2022-12-14T23:25:01.600Z,30.63
2022-12-14T23:28:22.357Z,33.80
2022-12-14T23:31:42.725Z,32.10
2022-12-14T23:35:04.498Z,29.40
2022-12-14T23:38:25.326Z,32.23
2022-12-14T23:41:45.532Z,29.90
2022-12-14T23:45:05.769Z,31.03
2022-12-14T23:48:26.039Z,41.97
2022-12-14T23:51:47.625Z,34.17
2022-12-14T23:55:07.841Z,36.90
2022-12-14T23:58:28.104Z,40.80
